Time;durP1;ratioP1;P1;durP2;ratioP2;P2;SDS_P1;SDS_P2;PMS_P1;PMS_P2;Temp;Humidity;BMP_temperature;BMP_pressure;BME280_temperature;BME280_humidity;BME280_pressure;Samples;Min_cycle;Max_cycle;Signal;HPM_P1;HPM_P2
2023/05/09 00:01:30;;;;;;;;;;;14.50;99.90;;;;;;4979603;28;20185;-76
2023/05/09 00:03:57;;;;;;;;;;;14.50;99.90;;;;;;4976001;28;20290;-79
2023/05/09 00:06:22;;;;;;;;;;;14.50;99.90;;;;;;4977160;28;19922;-76
2023/05/09 00:08:48;;;;;;;;;;;14.40;99.90;;;;;;5010500;28;19932;-76
2023/05/09 00:11:13;;;;;;;;;;;14.40;99.90;;;;;;4990808;28;20279;-75
2023/05/09 00:13:40;;;;;;;;;;;14.40;99.90;;;;;;4993097;28;20389;-75
2023/05/09 00:16:07;;;;;;;;;;;14.40;99.90;;;;;;4988879;28;20015;-76
2023/05/09 00:18:32;;;;;;;;;;;14.40;99.90;;;;;;4971059;28;19930;-76
2023/05/09 00:20:58;;;;;;;;;;;14.40;99.90;;;;;;4988524;28;19925;-76
2023/05/09 00:23:24;;;;;;;;;;;14.40;99.90;;;;;;4969860;28;19922;-75
2023/05/09 00:25:49;;;;;;;;;;;14.40;99.90;;;;;;4974290;28;19925;-76
2023/05/09 00:28:15;;;;;;;;;;;14.40;99.90;;;;;;4993276;28;19995;-76
2023/05/09 00:30:40;;;;;;;;;;;14.40;99.90;;;;;;4991143;28;19932;-76
2023/05/09 00:33:06;;;;;;;;;;;14.40;99.90;;;;;;4992600;28;20374;-78
2023/05/09 00:35:32;;;;;;;;;;;14.40;99.90;;;;;;4991673;28;20186;-76
2023/05/09 00:37:58;;;;;;;;;;;14.40;99.90;;;;;;4978503;28;19921;-76
2023/05/09 00:40:23;;;;;;;;;;;14.40;99.90;;;;;;4974461;28;20378;-75
2023/05/09 00:42:50;;;;;;;;;;;14.40;99.90;;;;;;4992812;28;19922;-76
2023/05/09 00:45:15;;;;;;;;;;;14.40;99.90;;;;;;4991127;28;19964;-84
2023/05/09 00:47:41;;;;;;;;;;;14.40;99.90;;;;;;4988982;28;20906;-76
2023/05/09 00:50:07;;;;;;;;;;;14.40;99.90;;;;;;4990108;28;19927;-76
2023/05/09 00:52:33;;;;;;;;;;;14.40;99.90;;;;;;4991533;28;20000;-77
2023/05/09 00:54:59;;;;;;;;;;;14.40;99.90;;;;;;4990668;28;19925;-76
2023/05/09 00:57:25;;;;;;;;;;;14.40;99.90;;;;;;5008092;28;19925;-78
2023/05/09 00:59:50;;;;;;;;;;;14.40;99.90;;;;;;4989926;28;20012;-78
2023/05/09 01:02:16;;;;;;;;;;;14.40;99.90;;;;;;4993563;28;19921;-84
2023/05/09 01:04:43;;;;;;;;;;;14.30;99.90;;;;;;4964878;28;19987;-76
2023/05/09 01:07:09;;;;;;;;;;;14.30;99.90;;;;;;4998595;28;19928;-76
2023/05/09 01:09:35;;;;;;;;;;;14.30;99.90;;;;;;4987442;28;19926;-77
2023/05/09 01:12:12;;;;;;;;;;;14.30;99.90;;;;;;5010409;28;19925;-78
2023/05/09 01:14:57;;;;;;;;;;;14.40;99.90;;;;;;4991019;28;20024;-76
2023/05/09 01:17:32;;;;;;;;;;;14.40;99.90;;;;;;4988418;28;20290;-76
2023/05/09 01:20:16;;;;;;;;;;;14.40;99.90;;;;;;5009491;28;19921;-79
2023/05/09 01:22:45;;;;;;;;;;;14.40;99.90;;;;;;5004200;28;20016;-76
2023/05/09 01:25:18;;;;;;;;;;;14.40;99.90;;;;;;4992580;28;19925;-77
2023/05/09 01:27:50;;;;;;;;;;;14.40;99.90;;;;;;5007750;28;19929;-76
2023/05/09 01:30:16;;;;;;;;;;;14.40;99.90;;;;;;4988554;28;20378;-77
2023/05/09 01:32:42;;;;;;;;;;;14.30;99.90;;;;;;5008767;28;19931;-82
2023/05/09 01:35:09;;;;;;;;;;;14.30;99.90;;;;;;4987426;28;19975;-76
2023/05/09 01:37:38;;;;;;;;;;;14.30;99.90;;;;;;5007009;28;19996;-77
2023/05/09 01:40:09;;;;;;;;;;;14.30;99.90;;;;;;4974385;28;19972;-76
2023/05/09 01:42:51;;;;;;;;;;;14.40;99.90;;;;;;5008239;28;19921;-77
2023/05/09 01:45:18;;;;;;;;;;;14.30;99.90;;;;;;4997336;28;20037;-76
2023/05/09 01:47:46;;;;;;;;;;;14.40;99.90;;;;;;5008894;28;19917;-76
2023/05/09 01:50:12;;;;;;;;;;;14.40;99.90;;;;;;4991173;28;19979;-76
2023/05/09 01:52:39;;;;;;;;;;;14.30;99.90;;;;;;4985122;28;20326;-76
2023/05/09 01:55:05;;;;;;;;;;;14.30;99.90;;;;;;4988062;28;19929;-77
2023/05/09 01:57:31;;;;;;;;;;;14.30;99.90;;;;;;5005945;28;20348;-76
2023/05/09 01:59:57;;;;;;;;;;;14.30;99.90;;;;;;4990317;28;19925;-76
2023/05/09 02:02:24;;;;;;;;;;;14.30;99.90;;;;;;4991507;28;20309;-76
2023/05/09 02:04:50;;;;;;;;;;;14.30;99.90;;;;;;5007779;28;19987;-76
2023/05/09 02:07:16;;;;;;;;;;;14.20;99.90;;;;;;4973597;28;20402;-76
2023/05/09 02:09:42;;;;;;;;;;;14.20;99.90;;;;;;5008452;28;19925;-76
2023/05/09 02:12:07;;;;;;;;;;;14.20;99.90;;;;;;4988761;28;19922;-76
2023/05/09 02:14:33;;;;;;;;;;;14.20;99.90;;;;;;4973209;28;19925;-76
2023/05/09 02:17:05;;;;;;;;;;;14.10;99.90;;;;;;5008190;28;20048;-76
2023/05/09 02:19:31;;;;;;;;;;;14.10;99.90;;;;;;4991571;28;19925;-79
2023/05/09 02:21:57;;;;;;;;;;;14.10;99.90;;;;;;5007625;28;19925;-76
2023/05/09 02:24:23;;;;;;;;;;;14.00;99.90;;;;;;4990678;28;19928;-76
2023/05/09 02:26:48;;;;;;;;;;;14.00;99.90;;;;;;5008029;28;20385;-76
2023/05/09 02:29:15;;;;;;;;;;;13.90;99.90;;;;;;4994658;28;19922;-77
2023/05/09 02:31:41;;;;;;;;;;;13.90;99.90;;;;;;4990855;28;19929;-77
2023/05/09 02:34:07;;;;;;;;;;;13.90;99.90;;;;;;4985994;28;19928;-77
2023/05/09 02:36:33;;;;;;;;;;;13.90;99.90;;;;;;5011125;28;19944;-83
2023/05/09 02:38:59;;;;;;;;;;;13.90;99.90;;;;;;5009926;28;19925;-73
2023/05/09 02:41:26;;;;;;;;;;;13.90;99.90;;;;;;4993794;28;19929;-76
2023/05/09 02:43:52;;;;;;;;;;;13.90;99.90;;;;;;4993289;28;19933;-74
2023/05/09 02:46:17;;;;;;;;;;;13.90;99.90;;;;;;4994260;28;19929;-75
2023/05/09 02:48:43;;;;;;;;;;;14.00;99.90;;;;;;4994184;28;19922;-75
2023/05/09 02:51:08;;;;;;;;;;;14.00;99.90;;;;;;4979026;28;19972;-76
2023/05/09 02:53:34;;;;;;;;;;;14.00;99.90;;;;;;4991856;28;19921;-83
2023/05/09 02:55:59;;;;;;;;;;;14.00;99.90;;;;;;4993057;28;19929;-75
2023/05/09 02:58:25;;;;;;;;;;;14.00;99.90;;;;;;4993896;28;20502;-76
2023/05/09 03:00:51;;;;;;;;;;;14.00;99.90;;;;;;5012035;28;19936;-75
2023/05/09 03:03:16;;;;;;;;;;;14.00;99.90;;;;;;5009462;28;19921;-76
2023/05/09 03:05:42;;;;;;;;;;;14.00;99.90;;;;;;4991943;28;19929;-75
2023/05/09 03:08:07;;;;;;;;;;;14.10;99.90;;;;;;4995668;28;19921;-77
2023/05/09 03:10:33;;;;;;;;;;;14.10;99.90;;;;;;4993817;28;19972;-75
2023/05/09 03:12:59;;;;;;;;;;;14.20;99.90;;;;;;4992647;28;20388;-75
2023/05/09 03:15:25;;;;;;;;;;;14.20;99.90;;;;;;4991162;28;19925;-76
2023/05/09 03:17:50;;;;;;;;;;;14.20;99.90;;;;;;5011714;28;20402;-80
2023/05/09 03:20:16;;;;;;;;;;;14.20;99.90;;;;;;4995147;28;20004;-75
2023/05/09 03:22:41;;;;;;;;;;;14.20;99.90;;;;;;4994685;28;19928;-78
2023/05/09 03:25:07;;;;;;;;;;;14.20;99.90;;;;;;4992246;28;19965;-82
2023/05/09 03:27:32;;;;;;;;;;;14.20;99.90;;;;;;4995242;28;19932;-75
2023/05/09 03:29:58;;;;;;;;;;;14.30;99.90;;;;;;4994755;28;19956;-76
2023/05/09 03:32:23;;;;;;;;;;;14.30;99.90;;;;;;4974426;28;20319;-75
2023/05/09 03:34:49;;;;;;;;;;;14.30;99.90;;;;;;4991135;28;20040;-75
2023/05/09 03:37:15;;;;;;;;;;;14.30;99.90;;;;;;4987527;28;19940;-78
2023/05/09 03:39:40;;;;;;;;;;;14.40;99.90;;;;;;4973402;28;19926;-82
2023/05/09 03:42:06;;;;;;;;;;;14.40;99.90;;;;;;4971110;28;20301;-75
2023/05/09 03:44:31;;;;;;;;;;;14.40;99.90;;;;;;5006243;28;20382;-75
2023/05/09 03:46:57;;;;;;;;;;;14.40;99.90;;;;;;4984634;28;19921;-75
2023/05/09 03:49:22;;;;;;;;;;;14.40;99.90;;;;;;4994471;28;19922;-75
2023/05/09 03:51:48;;;;;;;;;;;14.40;99.90;;;;;;4993529;28;19979;-75
2023/05/09 03:54:14;;;;;;;;;;;14.40;99.90;;;;;;5008174;28;19948;-75
2023/05/09 03:56:39;;;;;;;;;;;14.50;99.90;;;;;;5006163;28;19921;-75
2023/05/09 03:59:05;;;;;;;;;;;14.50;99.90;;;;;;4988416;28;19929;-81
2023/05/09 04:01:30;;;;;;;;;;;14.40;99.90;;;;;;4984531;28;19925;-76
2023/05/09 04:03:56;;;;;;;;;;;14.50;99.90;;;;;;4971619;28;19976;-76
2023/05/09 04:06:22;;;;;;;;;;;14.40;99.90;;;;;;5007874;28;20013;-75
2023/05/09 04:08:48;;;;;;;;;;;14.40;99.90;;;;;;4989622;28;19929;-76
2023/05/09 04:11:13;;;;;;;;;;;14.40;99.90;;;;;;5010226;28;20015;-76
2023/05/09 04:13:39;;;;;;;;;;;14.50;99.90;;;;;;4991323;28;19991;-75
2023/05/09 04:16:05;;;;;;;;;;;14.50;99.90;;;;;;4992068;28;19925;-76
2023/05/09 04:18:30;;;;;;;;;;;14.40;99.90;;;;;;4958460;28;20349;-75
2023/05/09 04:20:56;;;;;;;;;;;14.50;99.90;;;;;;4976481;28;19925;-75
2023/05/09 04:23:21;;;;;;;;;;;14.50;99.90;;;;;;5007726;28;20028;-76
2023/05/09 04:25:50;;;;;;;;;;;14.40;99.90;;;;;;4993213;28;19921;-83
2023/05/09 04:28:15;;;;;;;;;;;14.50;99.90;;;;;;4977167;28;20349;-77
2023/05/09 04:30:41;;;;;;;;;;;14.40;99.90;;;;;;4993574;28;19927;-78
2023/05/09 04:33:06;;;;;;;;;;;14.50;99.90;;;;;;4990360;28;19971;-77
2023/05/09 04:35:32;;;;;;;;;;;14.50;99.90;;;;;;4993781;28;19928;-75
2023/05/09 04:37:57;;;;;;;;;;;14.50;99.90;;;;;;4992781;28;19928;-75
2023/05/09 04:40:23;;;;;;;;;;;14.50;99.90;;;;;;4977305;28;19987;-75
2023/05/09 04:42:48;;;;;;;;;;;14.60;99.90;;;;;;4977541;28;19976;-79
2023/05/09 04:45:14;;;;;;;;;;;14.60;99.90;;;;;;4992278;28;19929;-75
2023/05/09 04:47:40;;;;;;;;;;;14.60;99.90;;;;;;5009458;28;19925;-76
2023/05/09 04:50:06;;;;;;;;;;;14.60;99.90;;;;;;5002257;28;19991;-76
2023/05/09 04:52:32;;;;;;;;;;;14.70;99.90;;;;;;4983707;28;20374;-76
2023/05/09 04:54:57;;;;;;;;;;;14.70;99.90;;;;;;4989817;28;19928;-75
2023/05/09 04:57:23;;;;;;;;;;;14.70;99.90;;;;;;5007427;28;20401;-75
2023/05/09 04:59:49;;;;;;;;;;;14.80;99.90;;;;;;4987488;28;20337;-75
2023/05/09 05:02:14;;;;;;;;;;;14.80;99.90;;;;;;4982609;28;19925;-83
2023/05/09 05:04:40;;;;;;;;;;;14.80;99.90;;;;;;4988404;28;20373;-78
2023/05/09 05:07:06;;;;;;;;;;;14.80;99.90;;;;;;4975262;28;19933;-75
2023/05/09 05:09:31;;;;;;;;;;;14.80;99.90;;;;;;4990471;28;19928;-75
2023/05/09 05:11:57;;;;;;;;;;;14.80;99.90;;;;;;4969817;28;20004;-81
2023/05/09 05:14:23;;;;;;;;;;;14.90;99.90;;;;;;4984574;28;20001;-75
2023/05/09 05:16:48;;;;;;;;;;;14.80;99.90;;;;;;4991977;28;20317;-76
2023/05/09 05:19:14;;;;;;;;;;;14.80;99.90;;;;;;4992702;28;19921;-74
2023/05/09 05:21:39;;;;;;;;;;;14.80;99.90;;;;;;4959026;28;19925;-74
2023/05/09 05:24:05;;;;;;;;;;;14.80;99.90;;;;;;4987009;28;20016;-77
2023/05/09 05:26:30;;;;;;;;;;;14.80;99.90;;;;;;4993107;28;19932;-75
2023/05/09 05:28:56;;;;;;;;;;;14.80;99.90;;;;;;4990916;28;19922;-82
2023/05/09 05:31:21;;;;;;;;;;;14.70;99.90;;;;;;4988325;28;19922;-76
2023/05/09 05:33:47;;;;;;;;;;;14.80;99.90;;;;;;5009869;28;19980;-76
2023/05/09 05:36:13;;;;;;;;;;;14.80;99.90;;;;;;4977551;28;20310;-78
2023/05/09 05:38:38;;;;;;;;;;;14.80;99.90;;;;;;4989541;28;19981;-76
2023/05/09 05:41:04;;;;;;;;;;;14.70;99.90;;;;;;4987585;28;19922;-76
2023/05/09 05:43:30;;;;;;;;;;;14.70;99.90;;;;;;4976500;28;19921;-76
2023/05/09 05:45:55;;;;;;;;;;;14.70;99.90;;;;;;4976145;28;20382;-79
2023/05/09 05:48:21;;;;;;;;;;;14.60;99.90;;;;;;4993016;28;19921;-76
2023/05/09 05:50:46;;;;;;;;;;;14.60;99.90;;;;;;4977819;28;19921;-82
2023/05/09 05:53:12;;;;;;;;;;;14.60;99.90;;;;;;4983135;28;19921;-76
2023/05/09 05:55:38;;;;;;;;;;;14.60;99.90;;;;;;4973010;28;19925;-76
2023/05/09 05:58:03;;;;;;;;;;;14.70;99.90;;;;;;4976627;28;19921;-78
2023/05/09 06:00:29;;;;;;;;;;;14.70;99.90;;;;;;5004687;28;19922;-78
2023/05/09 06:02:54;;;;;;;;;;;14.80;99.90;;;;;;4978422;28;19936;-78
2023/05/09 06:05:20;;;;;;;;;;;14.80;99.90;;;;;;4996992;28;19926;-85
2023/05/09 06:07:46;;;;;;;;;;;14.80;99.90;;;;;;5013016;28;19928;-78
2023/05/09 06:10:11;;;;;;;;;;;14.90;99.90;;;;;;4991037;28;20370;-78
2023/05/09 06:12:37;;;;;;;;;;;14.90;99.90;;;;;;4983337;28;20274;-77
2023/05/09 06:15:05;;;;;;;;;;;14.90;99.90;;;;;;5010500;28;19921;-77
2023/05/09 06:17:31;;;;;;;;;;;14.90;99.90;;;;;;5004773;28;19976;-77
2023/05/09 06:19:57;;;;;;;;;;;15.00;99.90;;;;;;4997610;28;19921;-77
2023/05/09 06:22:23;;;;;;;;;;;15.10;99.90;;;;;;4994277;28;19932;-76
2023/05/09 06:24:48;;;;;;;;;;;15.10;99.90;;;;;;4993779;28;20016;-77
2023/05/09 06:27:14;;;;;;;;;;;15.20;99.90;;;;;;4993951;28;20286;-87
2023/05/09 06:29:39;;;;;;;;;;;15.30;99.90;;;;;;4994360;28;20285;-77
2023/05/09 06:32:05;;;;;;;;;;;15.40;99.90;;;;;;4992930;28;19922;-80
2023/05/09 06:34:30;;;;;;;;;;;15.50;99.90;;;;;;4979718;28;20370;-77
2023/05/09 06:36:56;;;;;;;;;;;15.50;99.90;;;;;;4996053;28;19921;-77
2023/05/09 06:39:21;;;;;;;;;;;15.60;99.90;;;;;;5013871;28;20366;-77
2023/05/09 06:41:47;;;;;;;;;;;15.60;99.90;;;;;;4997955;28;19979;-81
2023/05/09 06:44:13;;;;;;;;;;;15.70;99.90;;;;;;4989129;28;19922;-77
2023/05/09 06:46:38;;;;;;;;;;;15.70;99.90;;;;;;4998444;28;20380;-78
2023/05/09 06:49:04;;;;;;;;;;;15.80;99.90;;;;;;4996961;28;19972;-81
2023/05/09 06:51:30;;;;;;;;;;;15.80;99.90;;;;;;4980526;28;19987;-77
2023/05/09 06:53:56;;;;;;;;;;;15.90;99.90;;;;;;5014168;28;20366;-77
2023/05/09 06:56:22;;;;;;;;;;;15.90;99.90;;;;;;4998874;28;19921;-77
2023/05/09 06:58:48;;;;;;;;;;;16.00;99.90;;;;;;4996998;28;19921;-77
2023/05/09 07:01:13;;;;;;;;;;;16.00;99.90;;;;;;4994933;28;19921;-79
2023/05/09 07:03:39;;;;;;;;;;;16.00;99.90;;;;;;4981273;28;19922;-77
2023/05/09 07:06:04;;;;;;;;;;;16.00;99.90;;;;;;4997413;28;20003;-78
2023/05/09 07:08:30;;;;;;;;;;;15.90;99.90;;;;;;5009040;28;19932;-77
2023/05/09 07:10:56;;;;;;;;;;;15.90;99.90;;;;;;4995084;28;19925;-82
2023/05/09 07:13:21;;;;;;;;;;;15.90;99.90;;;;;;5008921;28;19976;-78
2023/05/09 07:15:47;;;;;;;;;;;15.90;99.90;;;;;;4995660;28;19971;-80
2023/05/09 07:18:12;;;;;;;;;;;15.90;99.90;;;;;;4996696;28;20016;-82
2023/05/09 07:20:38;;;;;;;;;;;15.90;99.90;;;;;;4995684;28;20376;-82
2023/05/09 07:23:04;;;;;;;;;;;15.90;99.90;;;;;;4980023;28;19977;-78
2023/05/09 07:25:30;;;;;;;;;;;15.90;99.90;;;;;;4985873;28;19929;-82
2023/05/09 07:27:55;;;;;;;;;;;15.90;99.90;;;;;;5014481;28;19925;-78
2023/05/09 07:30:21;;;;;;;;;;;15.90;99.90;;;;;;4979833;28;20389;-78
2023/05/09 07:32:46;;;;;;;;;;;15.90;99.90;;;;;;4977389;28;19983;-81
2023/05/09 07:35:12;;;;;;;;;;;16.00;99.90;;;;;;4990919;28;19937;-78
2023/05/09 07:37:38;;;;;;;;;;;16.10;99.90;;;;;;4974247;28;19921;-78
2023/05/09 07:40:04;;;;;;;;;;;16.20;99.90;;;;;;4982072;28;19926;-77
2023/05/09 07:42:31;;;;;;;;;;;16.40;99.90;;;;;;4980235;28;19926;-79
2023/05/09 07:44:58;;;;;;;;;;;16.60;99.90;;;;;;4995335;28;19921;-78
2023/05/09 07:47:23;;;;;;;;;;;16.70;99.90;;;;;;4994703;28;19925;-78
2023/05/09 07:49:49;;;;;;;;;;;16.90;99.90;;;;;;4984883;28;20375;-78
2023/05/09 07:52:16;;;;;;;;;;;17.10;99.90;;;;;;4992594;28;19957;-78
2023/05/09 07:54:42;;;;;;;;;;;17.30;99.90;;;;;;4993725;28;19921;-78
2023/05/09 07:57:07;;;;;;;;;;;17.40;99.90;;;;;;4974111;28;20358;-82
2023/05/09 07:59:33;;;;;;;;;;;17.40;99.90;;;;;;4970996;28;19936;-78
2023/05/09 08:01:59;;;;;;;;;;;17.40;99.90;;;;;;4991910;28;19980;-78
2023/05/09 08:04:25;;;;;;;;;;;17.40;99.90;;;;;;4993612;28;20016;-84
2023/05/09 08:06:50;;;;;;;;;;;17.40;99.90;;;;;;4976983;28;20004;-79
2023/05/09 08:09:17;;;;;;;;;;;17.40;99.90;;;;;;4997393;28;19925;-80
2023/05/09 08:11:43;;;;;;;;;;;17.50;99.90;;;;;;4992464;28;20015;-87
2023/05/09 08:14:09;;;;;;;;;;;17.60;99.90;;;;;;5011958;28;20414;-81
2023/05/09 08:16:34;;;;;;;;;;;17.70;99.90;;;;;;4981939;28;19921;-81
2023/05/09 08:22:03;;;;;;;;;;;17.80;99.90;;;;;;4992165;28;19945;-81
2023/05/09 08:24:30;;;;;;;;;;;18.00;99.90;;;;;;4997717;28;19930;-82
2023/05/09 08:26:56;;;;;;;;;;;18.10;99.90;;;;;;4981039;28;19929;-82
2023/05/09 08:29:21;;;;;;;;;;;18.10;96.30;;;;;;4981315;28;19921;-85
2023/05/09 08:31:47;;;;;;;;;;;18.20;99.90;;;;;;4965163;28;19928;-82
2023/05/09 08:34:12;;;;;;;;;;;18.30;99.20;;;;;;4981286;28;20350;-81
2023/05/09 08:36:39;;;;;;;;;;;18.50;85.40;;;;;;4981261;28;19925;-81
2023/05/09 08:39:05;;;;;;;;;;;18.40;90.70;;;;;;4984100;28;19928;-81
2023/05/09 08:41:34;;;;;;;;;;;18.60;92.80;;;;;;4997352;28;19922;-82
2023/05/09 08:44:00;;;;;;;;;;;18.80;87.80;;;;;;4980929;28;19921;-81
2023/05/09 08:46:40;;;;;;;;;;;18.90;25.50;;;;;;4997348;28;20378;-82
2023/05/09 08:49:26;;;;;;;;;;;19.00;20.50;;;;;;4991739;28;20350;-81
2023/05/09 08:51:52;;;;;;;;;;;19.00;8.60;;;;;;4998232;28;20278;-81
2023/05/09 08:54:18;;;;;;;;;;;19.10;7.80;;;;;;5005593;28;20004;-81
2023/05/09 08:56:44;;;;;;;;;;;19.20;1.00;;;;;;4997382;28;19927;-82
2023/05/09 08:59:09;;;;;;;;;;;19.10;1.00;;;;;;4997194;28;20016;-81
2023/05/09 09:01:35;;;;;;;;;;;19.00;1.00;;;;;;4981455;28;19983;-82
2023/05/09 09:04:05;;;;;;;;;;;19.10;1.00;;;;;;4996879;28;20421;-81
2023/05/09 09:06:32;;;;;;;;;;;19.30;1.00;;;;;;4981068;28;19922;-81
2023/05/09 09:12:22;;;;;;;;;;;19.60;1.00;;;;;;5014268;28;19959;-81
2023/05/09 09:18:15;;;;;;;;;;;19.60;1.00;;;;;;4994577;28;19924;-81
2023/05/09 09:20:44;;;;;;;;;;;19.70;1.00;;;;;;4984723;28;19982;-80
2023/05/09 09:23:11;;;;;;;;;;;19.70;1.00;;;;;;4993395;28;19928;-79
2023/05/09 09:25:36;;;;;;;;;;;19.60;1.00;;;;;;4977940;28;19975;-80
2023/05/09 09:28:03;;;;;;;;;;;19.60;1.00;;;;;;4986177;28;19921;-80
2023/05/09 09:30:28;;;;;;;;;;;19.50;1.00;;;;;;4974486;28;20044;-79
2023/05/09 09:32:54;;;;;;;;;;;19.50;1.00;;;;;;4958537;28;20378;-78
2023/05/09 09:35:20;;;;;;;;;;;19.50;99.90;;;;;;4994011;28;19921;-80
2023/05/09 09:37:46;;;;;;;;;;;19.60;1.00;;;;;;4962196;28;19971;-79
2023/05/09 09:40:13;;;;;;;;;;;19.80;1.00;;;;;;4998585;28;19921;-79
2023/05/09 09:42:42;;;;;;;;;;;19.80;99.90;;;;;;4994075;28;19928;-79
2023/05/09 09:45:12;;;;;;;;;;;19.80;99.90;;;;;;4979786;28;20657;-80
2023/05/09 09:47:38;;;;;;;;;;;19.80;99.90;;;;;;4989291;28;20359;-79
2023/05/09 09:50:10;;;;;;;;;;;19.80;1.00;;;;;;5009622;28;19964;-79
2023/05/09 09:52:40;;;;;;;;;;;19.70;99.90;;;;;;4997211;28;19923;-81
2023/05/09 09:55:06;;;;;;;;;;;19.50;99.90;;;;;;5010125;28;19964;-79
2023/05/09 09:57:36;;;;;;;;;;;19.30;99.90;;;;;;4995352;28;19979;-79
2023/05/09 10:00:02;;;;;;;;;;;19.10;99.90;;;;;;4996331;28;20386;-80
2023/05/09 10:02:28;;;;;;;;;;;19.00;99.90;;;;;;4978971;28;20420;-80
2023/05/09 10:04:53;;;;;;;;;;;19.10;99.90;;;;;;4995838;28;20016;-85
2023/05/09 10:07:21;;;;;;;;;;;19.40;99.90;;;;;;4991777;28;19922;-79
2023/05/09 10:09:48;;;;;;;;;;;19.80;99.90;;;;;;4997028;28;19929;-81
2023/05/09 10:12:17;;;;;;;;;;;20.30;99.90;;;;;;4998432;28;19968;-79
2023/05/09 10:14:43;;;;;;;;;;;21.00;99.90;;;;;;4981820;28;20298;-85
2023/05/09 10:17:10;;;;;;;;;;;21.30;99.50;;;;;;4997644;28;19925;-80
2023/05/09 10:19:36;;;;;;;;;;;21.30;1.00;;;;;;4997518;28;20375;-86
2023/05/09 10:22:03;;;;;;;;;;;21.30;1.00;;;;;;5001217;28;19922;-80
2023/05/09 10:24:32;;;;;;;;;;;21.20;99.90;;;;;;4998101;28;19932;-78
2023/05/09 10:27:05;;;;;;;;;;;21.40;99.90;;;;;;4996886;28;19988;-80
2023/05/09 10:29:34;;;;;;;;;;;21.50;1.00;;;;;;5014234;28;19932;-79
2023/05/09 10:32:05;;;;;;;;;;;21.50;1.00;;;;;;5002131;28;19940;-79
2023/05/09 10:34:33;;;;;;;;;;;21.70;1.00;;;;;;5021220;28;19921;-81
2023/05/09 10:36:59;;;;;;;;;;;21.80;99.90;;;;;;4995739;28;19928;-81
2023/05/09 10:39:26;;;;;;;;;;;21.80;99.90;;;;;;4963209;28;19961;-86
2023/05/09 10:41:53;;;;;;;;;;;21.90;99.90;;;;;;4986937;28;19921;-80
2023/05/09 10:44:19;;;;;;;;;;;22.10;99.90;;;;;;4986926;28;19925;-80
2023/05/09 10:46:45;;;;;;;;;;;22.20;99.90;;;;;;4997397;28;19922;-81
2023/05/09 10:49:11;;;;;;;;;;;22.30;99.90;;;;;;4993595;28;19930;-82
2023/05/09 10:51:37;;;;;;;;;;;22.30;99.90;;;;;;4999766;28;19976;-80
2023/05/09 10:54:11;;;;;;;;;;;22.50;99.90;;;;;;4993620;28;21241;-81
2023/05/09 10:56:38;;;;;;;;;;;22.70;99.90;;;;;;4983809;28;19963;-80
2023/05/09 10:59:04;;;;;;;;;;;22.60;99.90;;;;;;4996398;28;19921;-79
2023/05/09 11:01:35;;;;;;;;;;;22.50;99.90;;;;;;4981318;28;19922;-83
2023/05/09 11:04:08;;;;;;;;;;;22.30;99.90;;;;;;4994515;28;20723;-82
2023/05/09 11:06:47;;;;;;;;;;;22.10;99.90;;;;;;5012571;28;20456;-80
2023/05/09 11:09:26;;;;;;;;;;;21.80;99.90;;;;;;4982653;28;19921;-79
2023/05/09 11:12:04;;;;;;;;;;;21.70;99.90;;;;;;4996426;28;19963;-79
2023/05/09 11:14:31;;;;;;;;;;;21.80;99.90;;;;;;4993374;28;20805;-81
2023/05/09 11:16:57;;;;;;;;;;;22.00;99.90;;;;;;4999353;28;19931;-78
2023/05/09 11:19:37;;;;;;;;;;;22.30;99.90;;;;;;4989945;28;19956;-79
2023/05/09 11:22:11;;;;;;;;;;;22.70;99.90;;;;;;4994496;28;19921;-78
2023/05/09 11:24:37;;;;;;;;;;;22.90;99.90;;;;;;4984663;28;19928;-78
2023/05/09 11:27:13;;;;;;;;;;;22.80;99.90;;;;;;4982950;28;20290;-80
2023/05/09 11:29:42;;;;;;;;;;;22.40;99.90;;;;;;4989410;28;20366;-79
2023/05/09 11:32:12;;;;;;;;;;;22.00;99.90;;;;;;4978177;28;19925;-80
2023/05/09 11:34:39;;;;;;;;;;;21.80;99.90;;;;;;4999799;28;20413;-80
2023/05/09 11:37:12;;;;;;;;;;;21.70;99.90;;;;;;4998554;28;20546;-79
2023/05/09 11:39:57;;;;;;;;;;;21.70;99.90;;;;;;4994570;28;19972;-77
2023/05/09 11:42:24;;;;;;;;;;;21.60;99.90;;;;;;4996867;28;19925;-77
2023/05/09 11:44:50;;;;;;;;;;;21.30;99.90;;;;;;4977446;28;20306;-83
2023/05/09 11:47:15;;;;;;;;;;;21.10;99.90;;;;;;5007281;28;19925;-78
2023/05/09 11:49:44;;;;;;;;;;;20.70;99.90;;;;;;4994350;28;19975;-79
2023/05/09 11:52:10;;;;;;;;;;;20.50;99.90;;;;;;4976604;28;19940;-78
2023/05/09 11:54:39;;;;;;;;;;;20.40;1.00;;;;;;4989798;28;19925;-80
2023/05/09 11:57:04;;;;;;;;;;;20.50;1.00;;;;;;4973885;28;19925;-77
2023/05/09 11:59:31;;;;;;;;;;;20.60;1.00;;;;;;4993619;28;20341;-78
2023/05/09 12:02:01;;;;;;;;;;;20.80;1.00;;;;;;4976783;28;19975;-78
2023/05/09 12:04:27;;;;;;;;;;;20.90;1.00;;;;;;5003530;28;19953;-79
2023/05/09 12:06:53;;;;;;;;;;;20.90;99.90;;;;;;4977878;28;19976;-77
2023/05/09 12:09:19;;;;;;;;;;;21.00;99.90;;;;;;4980101;28;20377;-77
2023/05/09 12:11:48;;;;;;;;;;;21.20;99.90;;;;;;4993830;28;20267;-81
2023/05/09 12:14:29;;;;;;;;;;;21.50;1.00;;;;;;4982616;28;19961;-78
2023/05/09 12:16:55;;;;;;;;;;;21.80;1.00;;;;;;4989766;28;20052;-78
2023/05/09 12:19:24;;;;;;;;;;;22.20;1.00;;;;;;5011700;28;20016;-78
2023/05/09 12:22:00;;;;;;;;;;;22.60;99.90;;;;;;4978431;28;19949;-84
2023/05/09 12:24:27;;;;;;;;;;;22.70;99.90;;;;;;4992331;28;19929;-79
2023/05/09 12:26:53;;;;;;;;;;;22.80;99.90;;;;;;4993217;28;19968;-84
2023/05/09 12:29:23;;;;;;;;;;;23.00;99.90;;;;;;5010250;28;19929;-77
2023/05/09 12:31:48;;;;;;;;;;;23.00;99.90;;;;;;5009986;28;19922;-78
2023/05/09 12:34:15;;;;;;;;;;;23.00;99.90;;;;;;4990988;28;20374;-77
2023/05/09 12:36:50;;;;;;;;;;;23.00;99.90;;;;;;4977334;28;19975;-77
2023/05/09 12:39:23;;;;;;;;;;;22.80;99.90;;;;;;4989122;28;19925;-78
2023/05/09 12:41:49;;;;;;;;;;;22.70;99.90;;;;;;4995723;28;19960;-83
2023/05/09 12:44:22;;;;;;;;;;;22.60;99.90;;;;;;4987906;28;19933;-79
2023/05/09 12:46:55;;;;;;;;;;;22.50;99.90;;;;;;4988467;28;19944;-78
2023/05/09 12:49:21;;;;;;;;;;;22.40;99.90;;;;;;4987915;28;20394;-78
2023/05/09 12:51:47;;;;;;;;;;;22.40;99.90;;;;;;4993565;28;20374;-78
2023/05/09 12:54:18;;;;;;;;;;;22.30;99.90;;;;;;4992156;28;20578;-78
2023/05/09 12:56:46;;;;;;;;;;;22.20;99.90;;;;;;4994409;28;19921;-79
2023/05/09 12:59:13;;;;;;;;;;;22.00;1.00;;;;;;4993963;28;20293;-79
2023/05/09 13:01:39;;;;;;;;;;;21.80;35.90;;;;;;5005261;28;19925;-77
2023/05/09 13:04:05;;;;;;;;;;;21.70;34.70;;;;;;4990020;28;20582;-78
2023/05/09 13:06:31;;;;;;;;;;;21.80;99.90;;;;;;4985132;28;19921;-78
2023/05/09 13:09:01;;;;;;;;;;;21.90;11.80;;;;;;4975349;28;19961;-85
2023/05/09 13:11:26;;;;;;;;;;;21.80;1.00;;;;;;4992112;28;19932;-78
2023/05/09 13:13:55;;;;;;;;;;;21.80;1.00;;;;;;4996527;28;20012;-78
2023/05/09 13:16:21;;;;;;;;;;;21.80;1.00;;;;;;4985364;28;20398;-79
2023/05/09 13:18:47;;;;;;;;;;;21.90;70.90;;;;;;4988254;28;20005;-78
2023/05/09 13:21:12;;;;;;;;;;;22.00;1.00;;;;;;4966766;28;20273;-78
2023/05/09 13:23:38;;;;;;;;;;;22.10;1.00;;;;;;5001278;28;19922;-78
2023/05/09 13:26:03;;;;;;;;;;;22.00;1.00;;;;;;4973859;28;20428;-78
2023/05/09 13:28:29;;;;;;;;;;;21.90;1.00;;;;;;4991928;28;20444;-77
2023/05/09 13:30:55;;;;;;;;;;;21.60;1.00;;;;;;4973946;28;19968;-78
2023/05/09 13:33:20;;;;;;;;;;;21.20;1.00;;;;;;4990122;28;19979;-77
2023/05/09 13:35:46;;;;;;;;;;;20.70;1.00;;;;;;4960505;28;19925;-78
2023/05/09 13:38:11;;;;;;;;;;;20.40;1.00;;;;;;4996437;28;20372;-78
2023/05/09 13:40:37;;;;;;;;;;;20.20;1.00;;;;;;4976532;28;20082;-82
2023/05/09 13:43:02;;;;;;;;;;;19.90;32.70;;;;;;4999717;28;20452;-80
2023/05/09 13:45:28;;;;;;;;;;;19.90;93.80;;;;;;4991637;28;19929;-80
2023/05/09 13:47:54;;;;;;;;;;;19.90;99.90;;;;;;4987236;28;19956;-83
2023/05/09 13:50:20;;;;;;;;;;;19.90;99.90;;;;;;4970477;28;20009;-78
2023/05/09 13:52:45;;;;;;;;;;;19.80;99.90;;;;;;4974628;28;20378;-80
2023/05/09 13:55:11;;;;;;;;;;;19.70;99.90;;;;;;4990027;28;20013;-80
2023/05/09 13:57:36;;;;;;;;;;;19.60;99.90;;;;;;4974044;28;19968;-78
2023/05/09 14:00:03;;;;;;;;;;;19.50;99.90;;;;;;4971264;28;19973;-84
2023/05/09 14:02:28;;;;;;;;;;;19.30;99.90;;;;;;4991958;28;19921;-77
2023/05/09 14:04:54;;;;;;;;;;;19.20;1.00;;;;;;4989478;28;20393;-77
2023/05/09 14:07:20;;;;;;;;;;;19.20;1.00;;;;;;4983197;28;20321;-77
2023/05/09 14:09:46;;;;;;;;;;;19.20;93.70;;;;;;4986365;28;19976;-79
2023/05/09 14:12:12;;;;;;;;;;;19.10;95.30;;;;;;4985773;28;19933;-79
2023/05/09 14:14:37;;;;;;;;;;;19.00;99.90;;;;;;4975403;28;19928;-79
2023/05/09 14:17:03;;;;;;;;;;;19.00;99.90;;;;;;4988158;28;19928;-84
2023/05/09 14:19:31;;;;;;;;;;;19.00;99.90;;;;;;4997976;28;20382;-78
2023/05/09 14:21:57;;;;;;;;;;;19.00;99.90;;;;;;4976083;28;19922;-78
2023/05/09 14:24:23;;;;;;;;;;;18.90;99.90;;;;;;4993240;28;19925;-78
2023/05/09 14:26:48;;;;;;;;;;;18.80;11.00;;;;;;4996153;28;19952;-78